RBW Airport (Lowcountry Rgnl) Information

FAA: RBW - ICAO: KRBW

RBW Airport Location

State South Carolina
County Colleton
City Walterboro
RBW Airport is 2 miles northeast of Walterboro, SC.
Latitude 32-55-15.6000N
Longitude 080-38-26.2000W
Elevation 100ft

KRBW Airport METARs

METAR KRBW 181415Z AUTO 27004KT 10SM CLR 01/M01 A3021 RMK AO2
Altimeter 30.21"
Temperature 1.0°C (33.8°F)
Wind 270° at 4KT
Clouds Skies are clear.
Visibility 10.0mi
Time observed: 2022-01-18T14:15:00Z

RBW Airport Details

Status Operational
Activation October 1937
Ownership Public
Usage Public
Chart CHARLOTTE
ATC on-site No
Beacon schedule sunset-sunrise
Beacon color clear green

RBW Airport Contacts

Owner CITY OF WALTERBORO AND COLLETON CO.
Owner address BOX 8, WALTERBORO, SC 29488
Owner phone 843-549-2545
Manager WILLIAM G CARTER
Manager address 109 WOODBINE TERRACE, CENTRAL, SC 29630
Manager phone 803-654-1067

RBW Airport (Lowcountry Rgnl) Radio Frequencies

RBW (Airport) Radio Frequencies

UNICOM 122.8
Common traffic advisory frequency (CTAF) 122.8